Decoded Metar for KSFF (SPOKANE in WA, USA) (IATA:SFF) | Meteo·Mobile Aviation Weather
aviador You're here:

KSFF Decoded Metar

SPOKANE in WA, USA
Report Time2018-08-19 04:53:00
UTC Time2018-08-19 05:27:00
Flight Rules vfr VFR
WindCalm
Visibility9999 m
Phenomena:N/A
Clouds:Overcast 050 Hf
Expected CloudBase > 4,800 ft AGL from Temp-Dew spread
Ceiling5,000 ft
Temp20°C (ISA +9)
Dew Point08°C (46% RH)
AAT19.5°C
QNH1019 hPa
Density Alt2,992 ft
Elevation1,998 ft
Report Wrong Elevation
Raw Report
KSFF 190453Z AUTO 00000KT 8SM OVC050 20/08 A3010 RMK AO2 SLP180
T02000083=

Extra information for KSFF:More info

Metar Taf Metar & Taf Last 4 Metars F.Rules Stats Wind Profile Meteogram Temp Stats Airport Information Weather charts Add Link Nearby VenuesMetar ALERT Operation Metar Decoded Social comments

AIRNAV info for KSFF